Terminal Aerodrome Forecast
Issued by NWS

Home | Current Version | Previous Version | Text Only | Print | Product List | Glossary On
Versions: 1 2 3 4 5 6 7 8 9 10 11 12 13 14 15 16 17 18 19 20
557
FTUS43 KMQT 251554 AAD
TAFSAW
TAF AMD
KSAW 251554Z 2516/2612 04005KT P6SM OVC005
     FM251700 04005KT 6SM BR BKN015
     FM251900 06005KT P6SM SCT025
     FM252000 06006KT P6SM SCT150
     FM260200 11003KT P6SM VCSH OVC140
     FM260600 14004KT 6SM -SHRA BR OVC030 WS020/15035KT
     FM261000 17006KT 3SM BR OVC003=

USA.gov is the U.S. government's official web portal to all federal, state and local government web resources and services.